createdAt,value
2023-03-08T00:01:25.583Z,99771.25
2023-03-08T00:03:57.752Z,99766.31
2023-03-08T00:06:27.450Z,99772.97
2023-03-08T00:08:57.052Z,99769.91
2023-03-08T00:11:25.526Z,99777.28
2023-03-08T00:13:53.285Z,99776.28
2023-03-08T00:16:21.580Z,99773.09
2023-03-08T00:18:49.795Z,99766.53
2023-03-08T00:21:18.922Z,99773.22
2023-03-08T00:23:46.811Z,99770.97
2023-03-08T00:26:15.054Z,99761.56
2023-03-08T00:28:43.256Z,99761.09
2023-03-08T00:31:13.491Z,99754.78
2023-03-08T00:33:41.686Z,99763.00
2023-03-08T00:36:16.830Z,99757.63
2023-03-08T00:38:45.739Z,99759.31
2023-03-08T00:41:16.065Z,99778.66
2023-03-08T00:43:44.592Z,99781.28
2023-03-08T00:46:13.088Z,99776.78
2023-03-08T00:48:41.297Z,99761.91
2023-03-08T00:51:12.430Z,99767.28
2023-03-08T00:53:40.470Z,99762.50
2023-03-08T00:56:08.655Z,99764.06
2023-03-08T00:58:38.595Z,99758.25
2023-03-08T01:01:08.791Z,99761.81
2023-03-08T01:03:36.236Z,99756.81
2023-03-08T01:06:09.786Z,99763.09
2023-03-08T01:08:40.067Z,99760.94
2023-03-08T01:11:14.920Z,99769.38
2023-03-08T01:13:42.324Z,99766.28
2023-03-08T01:16:22.650Z,99770.19
2023-03-08T01:18:55.161Z,99773.41
2023-03-08T01:21:24.035Z,99767.56
2023-03-08T01:23:52.133Z,99763.16
2023-03-08T01:26:23.223Z,99767.88
2023-03-08T01:28:51.643Z,99770.50
2023-03-08T01:31:22.320Z,99770.66
2023-03-08T01:33:52.355Z,99766.38
2023-03-08T01:36:23.321Z,99763.66
2023-03-08T01:38:51.107Z,99761.84
2023-03-08T01:41:27.740Z,99761.56
2023-03-08T01:43:56.357Z,99755.19
2023-03-08T01:46:43.404Z,99752.22
2023-03-08T01:49:34.481Z,99760.13
2023-03-08T01:52:14.861Z,99766.97
2023-03-08T01:54:52.138Z,99765.88
2023-03-08T01:57:49.512Z,99770.25
2023-03-08T02:00:24.792Z,99766.44
2023-03-08T02:03:03.123Z,99769.69
2023-03-08T02:05:32.087Z,99764.88
2023-03-08T02:08:07.887Z,99768.88
2023-03-08T02:10:39.439Z,99777.34
2023-03-08T02:13:09.977Z,99784.72
2023-03-08T02:15:41.618Z,99780.03
2023-03-08T02:18:09.627Z,99771.19
2023-03-08T02:20:40.087Z,99774.63
2023-03-08T02:23:20.814Z,99774.72
2023-03-08T02:25:59.542Z,99768.69
2023-03-08T02:28:28.907Z,99769.19
2023-03-08T02:30:57.721Z,99766.53
2023-03-08T02:33:25.875Z,99767.81
2023-03-08T02:35:53.452Z,99766.25
2023-03-08T02:38:21.972Z,99772.19
2023-03-08T02:40:53.238Z,99771.09
2023-03-08T02:43:21.590Z,99756.94
2023-03-08T02:45:50.099Z,99759.34
2023-03-08T02:48:18.508Z,99755.16
2023-03-08T02:50:47.385Z,99755.03
2023-03-08T02:53:14.846Z,99748.06
2023-03-08T02:55:42.952Z,99750.03
2023-03-08T02:58:12.699Z,99749.44
2023-03-08T03:00:40.429Z,99751.88
2023-03-08T03:03:08.557Z,99749.19
2023-03-08T03:05:42.041Z,99747.13
2023-03-08T03:08:12.130Z,99741.16
2023-03-08T03:10:41.808Z,99748.84
2023-03-08T03:13:09.326Z,99754.69
2023-03-08T03:15:40.782Z,99757.84
2023-03-08T03:18:09.195Z,99763.06
2023-03-08T03:20:37.500Z,99771.63
2023-03-08T03:23:06.471Z,99768.28
2023-03-08T03:25:47.141Z,99765.56
2023-03-08T03:28:17.846Z,99776.50
2023-03-08T03:30:46.707Z,99780.25
2023-03-08T03:33:15.491Z,99779.78
2023-03-08T03:35:44.335Z,99783.13
2023-03-08T03:38:12.364Z,99786.97
2023-03-08T03:40:41.393Z,99794.50
2023-03-08T03:43:09.736Z,99794.41
2023-03-08T03:45:37.765Z,99781.34
2023-03-08T03:48:06.252Z,99791.88
2023-03-08T03:50:34.556Z,99800.88
2023-03-08T03:53:07.985Z,99809.53
2023-03-08T03:55:37.087Z,99790.75
2023-03-08T03:58:05.220Z,99799.94
2023-03-08T04:00:33.890Z,99806.19
2023-03-08T04:03:23.608Z,99807.38
2023-03-08T04:05:53.018Z,99803.09
2023-03-08T04:08:21.776Z,99805.06
2023-03-08T04:10:50.377Z,99803.63
2023-03-08T04:13:18.509Z,99810.69
2023-03-08T04:15:46.540Z,99815.91
2023-03-08T04:18:14.369Z,99829.38
2023-03-08T04:20:46.448Z,99831.88
2023-03-08T04:23:15.529Z,99824.66
2023-03-08T04:25:48.059Z,99832.47
2023-03-08T04:28:17.274Z,99832.59
2023-03-08T04:30:46.516Z,99840.31
2023-03-08T04:33:15.481Z,99839.38
2023-03-08T04:35:47.998Z,99852.50
2023-03-08T04:38:17.691Z,99852.00
2023-03-08T04:41:12.243Z,99854.50
2023-03-08T04:43:58.904Z,99841.75
2023-03-08T04:46:37.720Z,99845.53
2023-03-08T04:49:06.490Z,99848.34
2023-03-08T04:51:41.217Z,99853.06
2023-03-08T04:54:11.562Z,99849.50
2023-03-08T04:56:46.015Z,99847.09
2023-03-08T04:59:16.233Z,99854.28
2023-03-08T05:01:44.289Z,99856.88
2023-03-08T05:04:12.835Z,99863.44
2023-03-08T05:06:42.754Z,99867.53
2023-03-08T05:09:13.923Z,99863.44
2023-03-08T05:11:43.895Z,99859.31
2023-03-08T05:14:11.820Z,99866.19
2023-03-08T05:16:39.818Z,99858.16
2023-03-08T05:19:07.408Z,99856.41
2023-03-08T05:21:40.875Z,99851.66
2023-03-08T05:24:08.948Z,99856.88
2023-03-08T05:26:39.684Z,99854.09
2023-03-08T05:29:08.760Z,99856.50
2023-03-08T05:31:40.074Z,99854.50
2023-03-08T05:34:11.342Z,99854.09
2023-03-08T05:36:42.709Z,99852.13
2023-03-08T05:39:11.617Z,99852.63
2023-03-08T05:42:03.652Z,99847.94
2023-03-08T05:44:39.304Z,99856.78
2023-03-08T05:47:08.200Z,99848.69
2023-03-08T05:49:37.556Z,99855.75
2023-03-08T05:52:06.442Z,99854.81
2023-03-08T05:54:36.276Z,99850.34
2023-03-08T05:57:10.604Z,99859.31
2023-03-08T05:59:39.560Z,99865.38
2023-03-08T06:02:09.461Z,99870.06
2023-03-08T06:04:45.125Z,99861.41
2023-03-08T06:07:14.914Z,99858.63
2023-03-08T06:09:48.429Z,99856.63
2023-03-08T06:12:18.564Z,99868.44
2023-03-08T06:14:49.622Z,99870.81
2023-03-08T06:17:20.394Z,99870.72
2023-03-08T06:19:50.441Z,99871.75
2023-03-08T06:22:19.278Z,99881.03
2023-03-08T06:24:49.977Z,99882.00
2023-03-08T06:27:24.889Z,99878.97
2023-03-08T06:29:55.624Z,99887.53
2023-03-08T06:32:25.171Z,99885.72
2023-03-08T06:34:53.249Z,99887.09
2023-03-08T06:37:20.978Z,99896.28
2023-03-08T06:39:48.739Z,99906.53
2023-03-08T06:42:16.822Z,99915.09
2023-03-08T06:44:45.279Z,99917.47
2023-03-08T06:47:13.348Z,99918.91
2023-03-08T06:49:41.798Z,99919.00
2023-03-08T06:52:10.311Z,99926.44
2023-03-08T06:54:38.320Z,99921.56
2023-03-08T06:57:07.231Z,99922.72
2023-03-08T06:59:34.716Z,99928.34
2023-03-08T07:02:02.275Z,99936.31
2023-03-08T07:04:30.199Z,99939.94
2023-03-08T07:06:59.381Z,99947.31
2023-03-08T07:09:27.340Z,99952.63
2023-03-08T07:11:55.483Z,99950.00
2023-03-08T07:14:23.033Z,99965.41
2023-03-08T07:16:51.544Z,99971.38
2023-03-08T07:19:19.711Z,99971.84
2023-03-08T07:21:47.805Z,99967.94
2023-03-08T07:24:15.718Z,99968.31
2023-03-08T07:26:43.255Z,99971.88
2023-03-08T07:29:11.225Z,99973.53
2023-03-08T07:31:38.851Z,99975.09
2023-03-08T07:34:06.353Z,99984.25
2023-03-08T07:36:34.455Z,99989.28
2023-03-08T07:39:02.476Z,99990.47
2023-03-08T07:41:32.032Z,99982.97
2023-03-08T07:44:02.405Z,99985.09
2023-03-08T07:46:30.731Z,99982.28
2023-03-08T07:48:58.267Z,99982.59
2023-03-08T07:51:26.381Z,99974.72
2023-03-08T07:53:54.436Z,99973.50
2023-03-08T07:56:22.578Z,99973.91
2023-03-08T07:58:50.160Z,99977.34
2023-03-08T08:01:18.305Z,99975.78
2023-03-08T08:03:45.872Z,99981.06
2023-03-08T08:06:13.341Z,99970.31
2023-03-08T08:08:41.439Z,99987.91
2023-03-08T08:11:14.483Z,99992.22
2023-03-08T08:13:42.542Z,99995.00
2023-03-08T08:16:10.290Z,99998.25
2023-03-08T08:18:37.865Z,100004.78
2023-03-08T08:21:09.068Z,100021.16
2023-03-08T08:23:37.728Z,100034.13
2023-03-08T08:26:13.686Z,100031.19
2023-03-08T08:28:43.600Z,100028.41
2023-03-08T08:31:19.427Z,100038.09
2023-03-08T08:33:53.145Z,100036.88
2023-03-08T08:36:21.643Z,100034.09
2023-03-08T08:38:50.039Z,100042.13
2023-03-08T08:41:20.242Z,100042.53
2023-03-08T08:43:48.790Z,100040.09
2023-03-08T08:46:17.749Z,100040.31
2023-03-08T08:48:45.779Z,100035.75
2023-03-08T08:51:15.089Z,100030.50
2023-03-08T08:53:44.327Z,100035.47
2023-03-08T08:56:26.092Z,100022.16
2023-03-08T08:58:57.448Z,100028.13
2023-03-08T09:01:28.247Z,100020.84
2023-03-08T09:03:56.832Z,100019.59
2023-03-08T09:06:26.600Z,100006.84
2023-03-08T09:08:57.507Z,100004.19
2023-03-08T09:11:26.794Z,100009.06
2023-03-08T09:13:54.884Z,100005.41
2023-03-08T09:16:24.340Z,99996.03
2023-03-08T09:18:52.538Z,100009.16
2023-03-08T09:21:20.097Z,100025.88
2023-03-08T09:23:48.168Z,100018.56
2023-03-08T09:26:16.305Z,100031.41
2023-03-08T09:28:45.125Z,100024.63
2023-03-08T09:31:18.196Z,100024.41
2023-03-08T09:33:48.756Z,100024.00
2023-03-08T09:36:16.708Z,100037.69
2023-03-08T09:38:44.946Z,100038.06
2023-03-08T09:41:27.289Z,100028.03
2023-03-08T09:44:13.420Z,100029.78
2023-03-08T09:47:05.074Z,100042.69
2023-03-08T09:49:34.461Z,100042.00
2023-03-08T09:52:03.162Z,100055.38
2023-03-08T09:54:35.119Z,100057.50
2023-03-08T09:57:08.913Z,100063.56
2023-03-08T09:59:49.477Z,100057.00
2023-03-08T10:02:32.436Z,100044.34
2023-03-08T10:05:22.368Z,100036.75
2023-03-08T10:08:05.721Z,100033.56
2023-03-08T10:11:04.258Z,100036.84
2023-03-08T10:13:38.457Z,100039.06
2023-03-08T10:16:10.955Z,100032.25
2023-03-08T10:18:46.200Z,100037.53
2023-03-08T10:21:17.510Z,100031.94
2023-03-08T10:23:57.551Z,100042.06
2023-03-08T10:26:26.869Z,100035.28
2023-03-08T10:28:55.140Z,100034.59
2023-03-08T10:31:33.716Z,100031.44
2023-03-08T10:34:22.639Z,100026.72
2023-03-08T10:36:59.417Z,100035.97
2023-03-08T10:39:27.515Z,100025.63
2023-03-08T10:42:06.790Z,100019.94
2023-03-08T10:44:43.447Z,100015.75
2023-03-08T10:47:31.622Z,100003.16
2023-03-08T10:50:09.557Z,100006.22
2023-03-08T10:52:37.731Z,100009.16
2023-03-08T10:55:21.485Z,100005.38
2023-03-08T10:58:01.833Z,99996.59
2023-03-08T11:00:39.822Z,99989.94
2023-03-08T11:03:10.539Z,99990.00
2023-03-08T11:05:38.781Z,99989.97
2023-03-08T11:08:18.137Z,99984.88
2023-03-08T11:10:46.790Z,99977.28
2023-03-08T11:13:21.139Z,99982.31
2023-03-08T11:16:13.089Z,99979.06
2023-03-08T11:18:49.753Z,99974.81
2023-03-08T11:21:39.349Z,99967.53
2023-03-08T11:24:18.465Z,99954.59
2023-03-08T11:27:14.399Z,99937.47
2023-03-08T11:30:07.869Z,99937.91
2023-03-08T11:33:00.054Z,99937.81
2023-03-08T11:35:38.435Z,99924.50
2023-03-08T11:38:15.181Z,99939.25
2023-03-08T11:40:45.832Z,99947.16
2023-03-08T11:43:22.875Z,99937.03
2023-03-08T11:46:06.137Z,99944.06
2023-03-08T11:49:20.253Z,99932.50
2023-03-08T11:52:12.088Z,99915.03
2023-03-08T11:55:05.396Z,99911.84
2023-03-08T11:57:39.106Z,99921.69
2023-03-08T12:00:30.329Z,99931.84
2023-03-08T12:03:04.168Z,99949.81
2023-03-08T12:05:41.846Z,99958.63
2023-03-08T12:08:09.435Z,99946.09
2023-03-08T12:10:40.885Z,99944.19
2023-03-08T12:13:22.170Z,99953.69
2023-03-08T12:16:15.270Z,99942.06
2023-03-08T12:18:54.020Z,99927.56
2023-03-08T12:21:24.684Z,99931.06
2023-03-08T12:24:04.751Z,99948.84
2023-03-08T12:26:41.644Z,99954.88
2023-03-08T12:29:23.439Z,99965.19
2023-03-08T12:31:52.734Z,99970.16
2023-03-08T12:34:29.698Z,99967.28
2023-03-08T12:37:00.403Z,99959.59
2023-03-08T12:39:37.146Z,99960.28
2023-03-08T12:42:10.824Z,99958.81
2023-03-08T12:44:39.777Z,99962.47
2023-03-08T12:47:13.718Z,99966.13
2023-03-08T12:49:44.572Z,99953.72
2023-03-08T12:52:18.941Z,99946.34
2023-03-08T12:55:09.006Z,99942.53
2023-03-08T12:57:49.876Z,99937.75
2023-03-08T13:00:20.350Z,99919.44
2023-03-08T13:03:00.156Z,99914.00
2023-03-08T13:05:32.575Z,99898.09
2023-03-08T13:08:18.609Z,99894.66
2023-03-08T13:11:11.427Z,99891.94
2023-03-08T13:13:44.978Z,99892.50
2023-03-08T13:16:15.947Z,99884.31
2023-03-08T13:18:45.926Z,99881.63
2023-03-08T13:21:21.141Z,99868.69
2023-03-08T13:24:14.282Z,99876.22
2023-03-08T13:26:50.788Z,99870.56
2023-03-08T13:29:21.689Z,99876.47
2023-03-08T13:31:50.676Z,99882.66
2023-03-08T13:34:30.866Z,99868.59
2023-03-08T13:36:59.156Z,99861.94
2023-03-08T13:39:30.165Z,99861.59
2023-03-08T13:42:10.573Z,99856.50
2023-03-08T13:44:38.424Z,99853.66
2023-03-08T13:47:22.253Z,99841.06
2023-03-08T13:49:52.214Z,99860.34
2023-03-08T13:52:29.450Z,99849.84
2023-03-08T13:55:03.223Z,99852.50
2023-03-08T13:57:36.666Z,99851.25
2023-03-08T14:00:19.745Z,99856.63
2023-03-08T14:02:48.077Z,99863.31
2023-03-08T14:05:40.892Z,99863.63
2023-03-08T14:08:19.643Z,99855.47
2023-03-08T14:11:01.420Z,99853.81
2023-03-08T14:13:33.436Z,99844.97
2023-03-08T14:16:07.419Z,99855.72
2023-03-08T14:18:38.694Z,99856.81
2023-03-08T14:21:24.195Z,99853.88
2023-03-08T14:24:00.291Z,99857.94
2023-03-08T14:26:28.276Z,99862.19
2023-03-08T14:29:26.695Z,99857.53
2023-03-08T14:32:24.008Z,99857.63
2023-03-08T14:34:51.599Z,99884.06
2023-03-08T14:37:25.268Z,99893.97
2023-03-08T14:39:54.349Z,99885.78
2023-03-08T14:42:41.036Z,99901.16
2023-03-08T14:45:21.609Z,99905.09
2023-03-08T14:47:58.175Z,99905.44
2023-03-08T14:50:30.789Z,99902.66
2023-03-08T14:53:00.500Z,99910.94
2023-03-08T14:55:33.673Z,99912.59
2023-03-08T14:58:05.187Z,99909.63
2023-03-08T15:00:32.962Z,99908.59
2023-03-08T15:03:01.660Z,99913.53
2023-03-08T15:05:30.314Z,99909.50
2023-03-08T15:08:00.675Z,99921.16
2023-03-08T15:10:32.542Z,99923.09
2023-03-08T15:13:01.269Z,99915.31
2023-03-08T15:15:28.757Z,99907.59
2023-03-08T15:17:56.475Z,99908.34
2023-03-08T15:20:25.116Z,99901.25
2023-03-08T15:22:59.521Z,99893.16
2023-03-08T15:25:31.432Z,99885.19
2023-03-08T15:27:59.971Z,99878.06
2023-03-08T15:30:29.894Z,99881.34
2023-03-08T15:32:59.527Z,99878.81
2023-03-08T15:35:28.003Z,99884.47
2023-03-08T15:37:55.926Z,99891.06
2023-03-08T15:40:29.216Z,99886.66
2023-03-08T15:42:58.142Z,99883.81
2023-03-08T15:45:25.643Z,99893.56
2023-03-08T15:48:17.592Z,99884.19
2023-03-08T15:50:46.170Z,99878.13
2023-03-08T15:53:20.701Z,99874.06
2023-03-08T15:55:57.991Z,99861.78
2023-03-08T15:58:25.620Z,99865.59
2023-03-08T16:00:53.347Z,99851.16
2023-03-08T16:03:26.108Z,99870.84
2023-03-08T16:05:55.856Z,99867.06
2023-03-08T16:08:25.124Z,99868.22
2023-03-08T16:10:52.606Z,99869.06
2023-03-08T16:13:22.185Z,99864.94
2023-03-08T16:15:49.919Z,99880.97
2023-03-08T16:18:17.956Z,99883.34
2023-03-08T16:20:46.282Z,99882.41
2023-03-08T16:23:14.310Z,99884.47
2023-03-08T16:25:43.332Z,99882.13
2023-03-08T16:28:11.411Z,99873.28
2023-03-08T16:30:40.995Z,99860.19
2023-03-08T16:33:09.158Z,99872.81
2023-03-08T16:35:37.073Z,99874.09
2023-03-08T16:38:05.157Z,99887.19
2023-03-08T16:40:33.485Z,99886.50
2023-03-08T16:43:00.962Z,99884.53
2023-03-08T16:45:28.923Z,99890.03
2023-03-08T16:47:56.887Z,99888.06
2023-03-08T16:50:27.345Z,99885.31
2023-03-08T16:52:56.117Z,99877.28
2023-03-08T16:55:25.099Z,99879.78
2023-03-08T16:57:52.652Z,99880.13
2023-03-08T17:00:21.057Z,99882.78
2023-03-08T17:02:48.780Z,99880.44
2023-03-08T17:05:16.791Z,99870.34
2023-03-08T17:07:47.239Z,99870.19
2023-03-08T17:10:14.741Z,99869.34
2023-03-08T17:12:42.850Z,99865.16
2023-03-08T17:15:12.063Z,99869.66
2023-03-08T17:17:40.715Z,99864.81
2023-03-08T17:20:09.920Z,99875.47
2023-03-08T17:22:37.859Z,99877.06
2023-03-08T17:25:06.339Z,99876.91
2023-03-08T17:27:34.429Z,99886.78
2023-03-08T17:30:03.740Z,99880.53
2023-03-08T17:32:32.268Z,99871.56
2023-03-08T17:35:00.233Z,99873.44
2023-03-08T17:37:28.173Z,99880.28
2023-03-08T17:39:56.106Z,99894.81
2023-03-08T17:42:24.191Z,99891.66
2023-03-08T17:44:52.174Z,99880.47
2023-03-08T17:47:19.753Z,99896.84
2023-03-08T17:49:49.675Z,99916.53
2023-03-08T17:52:17.596Z,99926.88
2023-03-08T17:54:45.249Z,99930.22
2023-03-08T17:57:12.822Z,99926.69
2023-03-08T17:59:41.235Z,99918.13
2023-03-08T18:02:11.071Z,99920.97
2023-03-08T18:04:42.211Z,99916.53
2023-03-08T18:07:10.160Z,99916.09
2023-03-08T18:09:38.255Z,99931.13
2023-03-08T18:12:08.992Z,99943.09
2023-03-08T18:14:40.308Z,99949.28
2023-03-08T18:17:08.575Z,99956.38
2023-03-08T18:19:36.774Z,99961.06
2023-03-08T18:22:05.772Z,99949.06
2023-03-08T18:24:34.195Z,99954.50
2023-03-08T18:27:05.503Z,99953.44
2023-03-08T18:29:34.768Z,99961.28
2023-03-08T18:32:04.091Z,99947.69
2023-03-08T18:34:32.444Z,99953.72
2023-03-08T18:37:00.335Z,99952.69
2023-03-08T18:39:28.462Z,99950.50
2023-03-08T18:41:58.081Z,99951.19
2023-03-08T18:44:25.683Z,99957.38
2023-03-08T18:46:54.305Z,99965.56
2023-03-08T18:49:22.460Z,99958.91
2023-03-08T18:51:50.831Z,99948.44
2023-03-08T18:54:20.776Z,99950.16
2023-03-08T18:56:53.976Z,99943.59
2023-03-08T18:59:22.179Z,99954.81
2023-03-08T19:01:50.503Z,99961.09
2023-03-08T19:04:18.974Z,99966.03
2023-03-08T19:06:46.934Z,99961.84
2023-03-08T19:09:17.425Z,99963.19
2023-03-08T19:11:48.072Z,99958.88
2023-03-08T19:14:17.417Z,99948.88
2023-03-08T19:16:45.486Z,99948.84
2023-03-08T19:19:15.584Z,99960.94
2023-03-08T19:21:51.043Z,99961.94
2023-03-08T19:24:20.782Z,99956.88
2023-03-08T19:26:51.393Z,99944.03
2023-03-08T19:29:28.272Z,99933.19
2023-03-08T19:32:02.354Z,99938.47
2023-03-08T19:34:33.232Z,99939.47
2023-03-08T19:37:02.054Z,99943.91
2023-03-08T19:39:32.522Z,99949.78
2023-03-08T19:42:03.594Z,99946.22
2023-03-08T19:44:33.705Z,99937.56
2023-03-08T19:47:01.545Z,99931.53
2023-03-08T19:49:32.243Z,99929.72
2023-03-08T19:52:02.714Z,99934.09
2023-03-08T19:54:31.484Z,99937.72
2023-03-08T19:57:00.793Z,99938.31
2023-03-08T19:59:28.910Z,99937.06
2023-03-08T20:01:57.198Z,99938.13
2023-03-08T20:04:25.601Z,99941.94
2023-03-08T20:06:53.721Z,99942.69
2023-03-08T20:09:22.584Z,99953.00
2023-03-08T20:11:53.300Z,99957.91
2023-03-08T20:14:23.777Z,99951.75
2023-03-08T20:16:51.685Z,99963.66
2023-03-08T20:19:20.312Z,99960.50
2023-03-08T20:21:51.243Z,99958.16
2023-03-08T20:24:19.122Z,99957.94
2023-03-08T20:26:46.796Z,99958.38
2023-03-08T20:29:14.313Z,99956.03
2023-03-08T20:31:42.732Z,99967.44
2023-03-08T20:34:11.507Z,99966.19
2023-03-08T20:36:39.067Z,99963.97
2023-03-08T20:39:07.417Z,99964.09
2023-03-08T20:41:35.531Z,99968.13
2023-03-08T20:44:03.836Z,99973.00
2023-03-08T20:46:33.721Z,99966.25
2023-03-08T20:49:02.101Z,99952.69
2023-03-08T20:51:29.656Z,99964.34
2023-03-08T20:53:58.698Z,99959.03
2023-03-08T20:56:27.730Z,99970.75
2023-03-08T20:58:57.917Z,99967.97
2023-03-08T21:01:28.878Z,99967.19
2023-03-08T21:03:56.916Z,99962.44
2023-03-08T21:06:27.369Z,99944.66
2023-03-08T21:08:55.350Z,99958.03
2023-03-08T21:11:25.495Z,99960.94
2023-03-08T21:13:55.451Z,99954.16
2023-03-08T21:16:26.341Z,99951.63
2023-03-08T21:19:00.615Z,99941.47
2023-03-08T21:21:37.342Z,99946.28
2023-03-08T21:24:09.260Z,99941.19
2023-03-08T21:26:37.565Z,99936.84
2023-03-08T21:29:07.458Z,99935.47
2023-03-08T21:31:38.552Z,99932.00
2023-03-08T21:34:09.221Z,99919.50
2023-03-08T21:36:39.035Z,99917.63
2023-03-08T21:39:08.836Z,99928.41
2023-03-08T21:41:40.615Z,99919.75
2023-03-08T21:44:16.429Z,99913.38
2023-03-08T21:46:44.954Z,99916.56
2023-03-08T21:49:21.471Z,99928.94
2023-03-08T21:51:50.609Z,99930.41
2023-03-08T21:54:18.770Z,99929.72
2023-03-08T21:56:47.177Z,99916.38
2023-03-08T21:59:16.828Z,99917.03
2023-03-08T22:01:48.898Z,99910.41
2023-03-08T22:04:18.474Z,99900.09
2023-03-08T22:06:46.707Z,99903.78
2023-03-08T22:09:15.162Z,99901.75
2023-03-08T22:11:43.904Z,99903.41
2023-03-08T22:14:12.644Z,99901.66
2023-03-08T22:16:40.649Z,99895.28
2023-03-08T22:19:10.190Z,99900.00
2023-03-08T22:21:38.112Z,99904.41
2023-03-08T22:24:06.441Z,99899.81
2023-03-08T22:26:34.753Z,99908.25
2023-03-08T22:29:03.082Z,99901.75
2023-03-08T22:31:31.052Z,99893.59
2023-03-08T22:33:59.066Z,99896.34
2023-03-08T22:36:27.871Z,99891.84
2023-03-08T22:38:55.863Z,99892.47
2023-03-08T22:41:27.187Z,99891.31
2023-03-08T22:43:55.289Z,99893.66
2023-03-08T22:46:27.180Z,99896.56
2023-03-08T22:48:58.185Z,99901.47
2023-03-08T22:51:28.415Z,99887.81
2023-03-08T22:53:59.079Z,99889.41
2023-03-08T22:56:33.316Z,99888.34
2023-03-08T22:59:02.455Z,99890.97
2023-03-08T23:01:32.536Z,99895.78
2023-03-08T23:04:05.316Z,99889.34
2023-03-08T23:06:33.743Z,99880.56
2023-03-08T23:09:08.505Z,99875.06
2023-03-08T23:11:37.019Z,99874.25
2023-03-08T23:14:05.997Z,99871.69
2023-03-08T23:16:35.499Z,99865.81
2023-03-08T23:19:04.066Z,99872.84
2023-03-08T23:21:33.601Z,99861.22
2023-03-08T23:24:01.561Z,99862.16
2023-03-08T23:26:29.692Z,99865.06
2023-03-08T23:28:59.643Z,99867.84
2023-03-08T23:31:30.489Z,99867.78
2023-03-08T23:34:00.882Z,99865.06
2023-03-08T23:36:31.013Z,99859.44
2023-03-08T23:39:02.031Z,99854.78
2023-03-08T23:41:32.278Z,99864.22
2023-03-08T23:44:01.985Z,99858.88
2023-03-08T23:46:30.205Z,99872.16
2023-03-08T23:49:00.476Z,99867.31
2023-03-08T23:51:30.444Z,99860.34
2023-03-08T23:54:01.047Z,99860.75
2023-03-08T23:56:39.269Z,99862.28
2023-03-08T23:59:12.397Z,99865.47
